createdAt,value
2023-04-08T00:01:07.129Z,101473.03
2023-04-08T00:03:37.393Z,101479.09
2023-04-08T00:06:08.405Z,101468.91
2023-04-08T00:08:35.608Z,101471.09
2023-04-08T00:11:04.004Z,101471.97
2023-04-08T00:13:32.526Z,101469.16
2023-04-08T00:16:01.410Z,101480.97
2023-04-08T00:18:29.648Z,101479.91
2023-04-08T00:20:57.692Z,101475.47
2023-04-08T00:23:26.209Z,101469.16
2023-04-08T00:25:54.549Z,101470.84
2023-04-08T00:28:22.991Z,101474.91
2023-04-08T00:30:53.422Z,101478.53
2023-04-08T00:33:25.987Z,101476.34
2023-04-08T00:35:56.101Z,101476.91
2023-04-08T00:38:26.303Z,101475.47
2023-04-08T00:40:56.697Z,101476.63
2023-04-08T00:43:27.228Z,101481.03
2023-04-08T00:45:57.600Z,101481.53
2023-04-08T00:48:27.806Z,101474.97
2023-04-08T00:50:59.261Z,101484.66
2023-04-08T00:53:32.710Z,101475.00
2023-04-08T00:56:02.957Z,101476.91
2023-04-08T00:58:33.283Z,101473.88
2023-04-08T01:01:31.970Z,101466.72
2023-04-08T01:05:06.759Z,101472.81
2023-04-08T01:07:49.829Z,101470.34
2023-04-08T01:10:38.497Z,101473.09
2023-04-08T01:13:17.571Z,101482.97
2023-04-08T01:15:49.951Z,101468.94
2023-04-08T01:18:24.199Z,101486.53
2023-04-08T01:20:56.641Z,101482.66
2023-04-08T01:24:02.343Z,101483.22
2023-04-08T01:26:33.779Z,101487.88
2023-04-08T01:29:08.013Z,101490.06
2023-04-08T01:31:43.031Z,101491.16
2023-04-08T01:34:18.951Z,101488.72
2023-04-08T01:36:52.388Z,101488.16
2023-04-08T01:39:22.695Z,101489.03
2023-04-08T01:41:56.495Z,101491.22
2023-04-08T01:44:27.337Z,101491.78
2023-04-08T01:46:58.622Z,101493.16
2023-04-08T01:49:31.612Z,101492.03
2023-04-08T01:52:02.129Z,101494.31
2023-04-08T01:54:30.328Z,101495.66
2023-04-08T01:57:09.037Z,101499.78
2023-04-08T01:59:42.476Z,101496.47
2023-04-08T02:02:16.271Z,101501.97
2023-04-08T02:04:47.834Z,101494.28
2023-04-08T02:07:19.454Z,101495.66
2023-04-08T02:09:50.253Z,101493.47
2023-04-08T02:12:18.863Z,101490.44
2023-04-08T02:14:49.617Z,101488.78
2023-04-08T02:17:45.740Z,101500.09
2023-04-08T02:21:09.487Z,101498.41
2023-04-08T02:23:44.863Z,101500.34
2023-04-08T02:26:19.599Z,101514.66
2023-04-08T02:28:53.162Z,101511.34
2023-04-08T02:31:27.325Z,101509.66
2023-04-08T02:33:59.425Z,101512.13
2023-04-08T02:36:34.371Z,101515.47
2023-04-08T02:39:05.371Z,101518.72
2023-04-08T02:41:35.585Z,101515.22
2023-04-08T02:44:05.931Z,101519.91
2023-04-08T02:46:36.332Z,101522.91
2023-04-08T02:49:06.510Z,101525.09
2023-04-08T02:51:36.834Z,101532.53
2023-04-08T02:54:07.070Z,101530.03
2023-04-08T02:56:37.334Z,101535.22
2023-04-08T02:59:07.643Z,101528.34
2023-04-08T03:01:36.162Z,101521.72
2023-04-08T03:04:04.744Z,101525.31
2023-04-08T03:06:33.020Z,101533.00
2023-04-08T03:09:01.444Z,101531.22
2023-04-08T03:11:29.636Z,101531.72
2023-04-08T03:13:58.427Z,101531.22
2023-04-08T03:16:26.971Z,101528.38
2023-04-08T03:18:54.926Z,101536.06
2023-04-08T03:21:23.445Z,101548.97
2023-04-08T03:23:51.698Z,101550.88
2023-04-08T03:26:20.233Z,101550.31
2023-04-08T03:28:48.990Z,101548.19
2023-04-08T03:31:17.045Z,101550.09
2023-04-08T03:33:45.756Z,101543.75
2023-04-08T03:36:14.069Z,101554.19
2023-04-08T03:38:42.553Z,101555.00
2023-04-08T03:41:11.059Z,101546.44
2023-04-08T03:43:39.137Z,101554.41
2023-04-08T03:46:07.760Z,101555.78
2023-04-08T03:48:36.032Z,101557.75
2023-04-08T03:51:04.534Z,101559.44
2023-04-08T03:53:32.906Z,101557.50
2023-04-08T03:56:03.030Z,101559.97
2023-04-08T03:58:32.859Z,101559.13
2023-04-08T04:01:01.547Z,101564.88
2023-04-08T04:03:29.581Z,101564.59
2023-04-08T04:05:57.965Z,101571.50
2023-04-08T04:08:26.414Z,101570.41
2023-04-08T04:10:54.887Z,101574.00
2023-04-08T04:13:23.406Z,101576.44
2023-04-08T04:15:51.705Z,101578.13
2023-04-08T04:18:22.058Z,101583.88
2023-04-08T04:20:52.257Z,101575.63
2023-04-08T04:23:24.589Z,101589.66
2023-04-08T04:25:54.774Z,101577.00
2023-04-08T04:28:25.044Z,101580.63
2023-04-08T04:30:56.589Z,101589.44
2023-04-08T04:33:27.453Z,101588.00
2023-04-08T04:35:57.858Z,101591.56
2023-04-08T04:38:28.316Z,101601.47
2023-04-08T04:40:59.178Z,101605.63
2023-04-08T04:43:29.412Z,101597.94
2023-04-08T04:45:59.910Z,101612.16
2023-04-08T04:48:30.187Z,101615.78
2023-04-08T04:51:03.495Z,101607.56
2023-04-08T04:53:33.979Z,101613.31
2023-04-08T04:56:02.404Z,101616.84
2023-04-08T04:58:31.012Z,101614.69
2023-04-08T05:00:59.193Z,101615.25
2023-04-08T05:03:27.418Z,101635.13
2023-04-08T05:05:55.855Z,101621.97
2023-04-08T05:08:25.860Z,101636.97
2023-04-08T05:10:56.306Z,101629.81
2023-04-08T05:13:24.130Z,101630.13
2023-04-08T05:15:52.581Z,101645.53
2023-04-08T05:18:22.993Z,101637.50
2023-04-08T05:20:53.128Z,101634.75
2023-04-08T05:23:23.449Z,101651.28
2023-04-08T05:25:53.707Z,101645.81
2023-04-08T05:28:24.422Z,101648.56
2023-04-08T05:30:54.827Z,101645.81
2023-04-08T05:33:26.747Z,101653.81
2023-04-08T05:35:57.092Z,101655.22
2023-04-08T05:38:27.287Z,101658.28
2023-04-08T05:40:57.640Z,101656.09
2023-04-08T05:43:27.793Z,101661.38
2023-04-08T05:45:57.916Z,101666.63
2023-04-08T05:48:28.028Z,101662.25
2023-04-08T05:50:58.151Z,101671.56
2023-04-08T05:53:28.562Z,101668.00
2023-04-08T05:55:58.886Z,101678.53
2023-04-08T05:58:29.054Z,101683.22
2023-04-08T06:00:59.221Z,101679.09
2023-04-08T06:03:31.361Z,101682.69
2023-04-08T06:06:01.596Z,101687.94
2023-04-08T06:08:32.220Z,101686.94
2023-04-08T06:11:04.307Z,101687.50
2023-04-08T06:13:34.592Z,101687.50
2023-04-08T06:16:14.547Z,101693.00
2023-04-08T06:18:44.783Z,101701.03
2023-04-08T06:21:15.226Z,101699.69
2023-04-08T06:23:45.521Z,101706.06
2023-04-08T06:26:16.604Z,101706.69
2023-04-08T06:28:46.816Z,101708.84
2023-04-08T06:31:17.017Z,101703.88
2023-04-08T06:33:47.413Z,101712.25
2023-04-08T06:36:17.599Z,101713.09
2023-04-08T06:38:47.919Z,101717.22
2023-04-08T06:41:18.159Z,101723.03
2023-04-08T06:43:48.405Z,101723.59
2023-04-08T06:46:18.552Z,101731.06
2023-04-08T06:48:49.110Z,101724.78
2023-04-08T06:51:19.577Z,101731.63
2023-04-08T06:53:49.753Z,101733.03
2023-04-08T06:56:21.598Z,101738.88
2023-04-08T06:58:52.583Z,101741.44
2023-04-08T07:01:23.038Z,101746.69
2023-04-08T07:03:53.354Z,101747.84
2023-04-08T07:06:23.847Z,101748.16
2023-04-08T07:08:52.390Z,101757.63
2023-04-08T07:11:21.242Z,101754.88
2023-04-08T07:13:48.856Z,101754.31
2023-04-08T07:16:17.395Z,101752.69
2023-04-08T07:18:46.739Z,101766.19
2023-04-08T07:21:14.405Z,101762.63
2023-04-08T07:23:42.577Z,101760.69
2023-04-08T07:26:11.038Z,101760.69
2023-04-08T07:28:39.382Z,101757.91
2023-04-08T07:31:19.266Z,101770.06
2023-04-08T07:33:49.544Z,101765.34
2023-04-08T07:36:19.700Z,101770.88
2023-04-08T07:38:50.143Z,101773.94
2023-04-08T07:41:21.415Z,101776.66
2023-04-08T07:43:51.539Z,101781.09
2023-04-08T07:46:21.861Z,101777.22
2023-04-08T07:48:52.354Z,101783.59
2023-04-08T07:51:22.695Z,101783.56
2023-04-08T07:53:52.825Z,101784.66
2023-04-08T07:56:23.067Z,101783.22
2023-04-08T07:58:54.449Z,101779.06
2023-04-08T08:01:24.984Z,101786.84
2023-04-08T08:03:54.034Z,101789.66
2023-04-08T08:06:22.342Z,101791.84
2023-04-08T08:08:50.035Z,101788.00
2023-04-08T08:11:18.494Z,101791.03
2023-04-08T08:13:47.060Z,101789.66
2023-04-08T08:16:15.640Z,101795.44
2023-04-08T08:18:43.766Z,101801.25
2023-04-08T08:21:12.248Z,101795.41
2023-04-08T08:23:40.577Z,101807.28
2023-04-08T08:26:10.758Z,101803.97
2023-04-08T08:28:40.760Z,101801.19
2023-04-08T08:31:08.863Z,101810.34
2023-04-08T08:33:37.208Z,101802.56
2023-04-08T08:36:07.246Z,101804.78
2023-04-08T08:38:37.496Z,101803.47
2023-04-08T08:41:07.717Z,101811.19
2023-04-08T08:43:39.496Z,101810.63
2023-04-08T08:46:12.370Z,101813.38
2023-04-08T08:48:42.668Z,101809.44
2023-04-08T08:51:14.121Z,101821.03
2023-04-08T08:53:45.761Z,101828.22
2023-04-08T08:56:18.808Z,101832.66
2023-04-08T08:58:49.358Z,101830.72
2023-04-08T09:01:34.233Z,101837.88
2023-04-08T09:04:11.984Z,101841.53
2023-04-08T09:06:44.804Z,101836.84
2023-04-08T09:09:15.755Z,101845.41
2023-04-08T09:11:48.122Z,101850.13
2023-04-08T09:14:25.018Z,101847.94
2023-04-08T09:16:55.283Z,101860.06
2023-04-08T09:19:25.457Z,101858.91
2023-04-08T09:22:11.241Z,101865.16
2023-04-08T09:24:41.355Z,101866.13
2023-04-08T09:27:14.141Z,101868.03
2023-04-08T09:29:44.498Z,101866.94
2023-04-08T09:32:12.712Z,101863.63
2023-04-08T09:34:41.429Z,101868.63
2023-04-08T09:37:09.630Z,101878.22
2023-04-08T09:39:38.614Z,101870.56
2023-04-08T09:42:19.680Z,101870.22
2023-04-08T09:44:49.194Z,101881.59
2023-04-08T09:47:35.225Z,101876.09
2023-04-08T09:50:09.498Z,101880.69
2023-04-08T09:52:55.086Z,101877.00
2023-04-08T09:55:32.747Z,101877.44
2023-04-08T09:58:18.208Z,101879.31
2023-04-08T10:00:54.228Z,101881.91
2023-04-08T10:03:41.013Z,101872.44
2023-04-08T10:06:13.152Z,101883.59
2023-04-08T10:08:44.620Z,101879.78
2023-04-08T10:11:17.259Z,101874.34
2023-04-08T10:13:48.517Z,101885.06
2023-04-08T10:16:27.756Z,101887.91
2023-04-08T10:18:58.369Z,101879.50
2023-04-08T10:21:40.466Z,101879.50
2023-04-08T10:24:12.695Z,101879.38
2023-04-08T10:26:45.934Z,101889.34
2023-04-08T10:29:18.522Z,101884.78
2023-04-08T10:31:51.639Z,101889.31
2023-04-08T10:34:27.444Z,101880.94
2023-04-08T10:36:59.675Z,101881.22
2023-04-08T10:39:31.909Z,101882.16
2023-04-08T10:42:02.917Z,101887.47
2023-04-08T10:44:32.091Z,101885.59
2023-04-08T10:47:02.039Z,101884.78
2023-04-08T10:49:35.150Z,101883.34
2023-04-08T10:52:09.431Z,101889.34
2023-04-08T10:54:38.786Z,101887.25
2023-04-08T10:57:08.017Z,101879.09
2023-04-08T10:59:39.964Z,101891.81
2023-04-08T11:02:15.481Z,101881.88
2023-04-08T11:04:43.512Z,101884.16
2023-04-08T11:07:14.573Z,101886.28
2023-04-08T11:09:44.187Z,101876.34
2023-04-08T11:12:20.169Z,101884.13
2023-04-08T11:14:52.801Z,101872.81
2023-04-08T11:17:20.164Z,101874.25
2023-04-08T11:19:49.790Z,101888.22
2023-04-08T11:22:20.762Z,101891.97
2023-04-08T11:24:50.162Z,101881.91
2023-04-08T11:27:21.281Z,101887.09
2023-04-08T11:29:50.755Z,101891.16
2023-04-08T11:32:21.243Z,101890.00
2023-04-08T11:34:51.199Z,101889.06
2023-04-08T11:37:22.582Z,101893.13
2023-04-08T11:39:57.223Z,101889.06
2023-04-08T11:42:33.894Z,101890.81
2023-04-08T11:45:13.515Z,101886.97
2023-04-08T11:47:47.460Z,101882.53
2023-04-08T11:50:26.275Z,101890.72
2023-04-08T11:52:57.240Z,101886.53
2023-04-08T11:55:34.071Z,101880.28
2023-04-08T11:58:06.944Z,101885.09
2023-04-08T12:00:37.647Z,101875.78
2023-04-08T12:03:06.669Z,101881.94
2023-04-08T12:05:37.357Z,101882.25
2023-04-08T12:08:07.523Z,101885.56
2023-04-08T12:10:38.115Z,101885.88
2023-04-08T12:13:08.706Z,101883.53
2023-04-08T12:15:38.959Z,101881.25
2023-04-08T12:18:09.130Z,101877.69
2023-04-08T12:20:39.371Z,101882.75
2023-04-08T12:23:09.487Z,101881.03
2023-04-08T12:25:39.827Z,101876.94
2023-04-08T12:28:11.668Z,101880.75
2023-04-08T12:30:42.238Z,101884.69
2023-04-08T12:33:12.371Z,101892.81
2023-04-08T12:35:42.537Z,101890.19
2023-04-08T12:38:13.027Z,101892.31
2023-04-08T12:40:43.218Z,101883.66
2023-04-08T12:43:13.312Z,101880.75
2023-04-08T12:45:41.791Z,101880.53
2023-04-08T12:48:10.799Z,101882.81
2023-04-08T12:50:38.600Z,101879.19
2023-04-08T12:53:07.197Z,101879.63
2023-04-08T12:55:35.419Z,101875.91
2023-04-08T12:58:03.870Z,101879.53
2023-04-08T13:00:32.544Z,101878.91
2023-04-08T13:03:00.973Z,101875.09
2023-04-08T13:05:41.973Z,101872.25
2023-04-08T13:08:13.308Z,101870.16
2023-04-08T13:10:43.810Z,101868.34
2023-04-08T13:13:14.457Z,101866.44
2023-04-08T13:15:44.620Z,101871.44
2023-04-08T13:18:14.981Z,101873.16
2023-04-08T13:20:45.101Z,101868.53
2023-04-08T13:23:18.051Z,101873.13
2023-04-08T13:25:48.551Z,101868.19
2023-04-08T13:28:18.825Z,101863.72
2023-04-08T13:30:49.092Z,101872.94
2023-04-08T13:33:19.639Z,101875.88
2023-04-08T13:35:49.787Z,101863.53
2023-04-08T13:38:19.976Z,101862.34
2023-04-08T13:40:50.385Z,101869.59
2023-04-08T13:43:20.870Z,101863.19
2023-04-08T13:45:51.002Z,101864.84
2023-04-08T13:48:21.621Z,101862.56
2023-04-08T13:50:51.767Z,101865.03
2023-04-08T13:53:21.862Z,101859.03
2023-04-08T13:55:55.269Z,101854.09
2023-04-08T13:58:26.767Z,101859.22
2023-04-08T14:00:57.363Z,101855.09
2023-04-08T14:03:28.289Z,101856.19
2023-04-08T14:06:01.182Z,101853.25
2023-04-08T14:08:32.039Z,101852.59
2023-04-08T14:11:02.136Z,101851.50
2023-04-08T14:13:32.625Z,101848.03
2023-04-08T14:16:03.293Z,101850.31
2023-04-08T14:18:33.494Z,101850.81
2023-04-08T14:21:04.287Z,101847.88
2023-04-08T14:23:34.516Z,101844.19
2023-04-08T14:26:04.746Z,101842.69
2023-04-08T14:28:34.869Z,101851.28
2023-04-08T14:31:05.109Z,101848.69
2023-04-08T14:33:35.337Z,101847.47
2023-04-08T14:36:06.390Z,101844.56
2023-04-08T14:38:37.199Z,101843.06
2023-04-08T14:41:07.938Z,101850.13
2023-04-08T14:43:38.038Z,101852.50
2023-04-08T14:46:08.520Z,101853.94
2023-04-08T14:48:38.703Z,101852.59
2023-04-08T14:51:07.359Z,101843.13
2023-04-08T14:53:35.604Z,101845.59
2023-04-08T14:56:04.467Z,101846.69
2023-04-08T14:58:32.373Z,101843.69
2023-04-08T15:01:00.763Z,101856.25
2023-04-08T15:03:29.267Z,101852.41
2023-04-08T15:05:58.979Z,101850.63
2023-04-08T15:08:29.037Z,101859.06
2023-04-08T15:10:57.417Z,101844.97
2023-04-08T15:13:25.815Z,101841.19
2023-04-08T15:15:54.272Z,101848.25
2023-04-08T15:18:22.743Z,101842.13
2023-04-08T15:20:51.134Z,101857.00
2023-04-08T15:23:19.531Z,101866.19
2023-04-08T15:25:48.608Z,101860.00
2023-04-08T15:28:16.468Z,101856.44
2023-04-08T15:30:44.904Z,101858.34
2023-04-08T15:33:13.491Z,101861.84
2023-04-08T15:35:47.840Z,101858.59
2023-04-08T15:38:18.567Z,101862.78
2023-04-08T15:40:48.673Z,101861.31
2023-04-08T15:43:18.874Z,101865.47
2023-04-08T15:45:49.035Z,101861.38
2023-04-08T15:48:19.241Z,101864.16
2023-04-08T15:50:49.405Z,101867.44
2023-04-08T15:53:19.593Z,101862.44
2023-04-08T15:55:50.419Z,101863.28
2023-04-08T15:58:20.666Z,101852.78
2023-04-08T16:00:52.281Z,101864.81
2023-04-08T16:03:22.604Z,101864.22
2023-04-08T16:05:53.062Z,101859.63
2023-04-08T16:08:21.316Z,101859.88
2023-04-08T16:10:50.370Z,101853.50
2023-04-08T16:13:18.137Z,101862.88
2023-04-08T16:15:46.650Z,101862.31
2023-04-08T16:18:15.080Z,101861.19
2023-04-08T16:20:43.428Z,101869.84
2023-04-08T16:23:15.565Z,101867.25
2023-04-08T16:25:43.671Z,101871.84
2023-04-08T16:28:12.344Z,101878.16
2023-04-08T16:30:43.632Z,101885.66
2023-04-08T16:33:14.333Z,101899.91
2023-04-08T16:35:44.486Z,101890.03
2023-04-08T16:38:15.631Z,101896.09
2023-04-08T16:40:45.769Z,101906.25
2023-04-08T16:43:16.191Z,101913.56
2023-04-08T16:45:46.630Z,101911.19
2023-04-08T16:48:16.854Z,101913.41
2023-04-08T16:50:47.047Z,101913.75
2023-04-08T16:53:17.189Z,101913.25
2023-04-08T16:55:47.382Z,101926.44
2023-04-08T16:58:17.610Z,101923.06
2023-04-08T17:00:47.806Z,101931.44
2023-04-08T17:03:18.152Z,101931.59
2023-04-08T17:05:48.366Z,101943.22
2023-04-08T17:08:19.122Z,101941.59
2023-04-08T17:10:49.850Z,101945.88
2023-04-08T17:13:19.978Z,101948.66
2023-04-08T17:15:50.078Z,101949.50
2023-04-08T17:18:20.193Z,101947.06
2023-04-08T17:20:50.327Z,101961.47
2023-04-08T17:23:20.591Z,101960.38
2023-04-08T17:25:50.804Z,101965.31
2023-04-08T17:28:22.228Z,101968.94
2023-04-08T17:30:52.782Z,101974.72
2023-04-08T17:33:22.951Z,101977.53
2023-04-08T17:35:56.617Z,101978.31
2023-04-08T17:38:26.944Z,101979.13
2023-04-08T17:40:57.129Z,101985.75
2023-04-08T17:43:27.548Z,101986.31
2023-04-08T17:46:02.053Z,101993.19
2023-04-08T17:48:32.328Z,101993.75
2023-04-08T17:51:06.369Z,102008.91
2023-04-08T17:53:36.778Z,102004.16
2023-04-08T17:56:07.583Z,102008.84
2023-04-08T17:58:37.856Z,102011.03
2023-04-08T18:01:08.055Z,102019.22
2023-04-08T18:03:38.838Z,102024.47
2023-04-08T18:06:09.620Z,102033.50
2023-04-08T18:08:39.812Z,102037.94
2023-04-08T18:11:10.663Z,102044.72
2023-04-08T18:13:40.861Z,102043.72
2023-04-08T18:16:18.547Z,102055.16
2023-04-08T18:18:49.497Z,102059.47
2023-04-08T18:21:21.293Z,102053.59
2023-04-08T18:23:50.599Z,102059.09
2023-04-08T18:26:21.694Z,102060.66
2023-04-08T18:28:51.825Z,102065.88
2023-04-08T18:31:22.457Z,102069.38
2023-04-08T18:33:52.935Z,102067.88
2023-04-08T18:36:23.365Z,102080.19
2023-04-08T18:38:53.564Z,102073.81
2023-04-08T18:41:25.322Z,102081.44
2023-04-08T18:43:55.902Z,102077.28
2023-04-08T18:46:26.131Z,102090.22
2023-04-08T18:48:56.488Z,102083.38
2023-04-08T18:51:26.886Z,102091.38
2023-04-08T18:53:57.183Z,102091.38
2023-04-08T18:56:27.355Z,102093.59
2023-04-08T18:58:55.811Z,102100.47
2023-04-08T19:01:24.279Z,102110.34
2023-04-08T19:03:53.294Z,102108.09
2023-04-08T19:06:22.811Z,102103.69
2023-04-08T19:08:52.402Z,102109.75
2023-04-08T19:11:21.139Z,102111.44
2023-04-08T19:13:49.504Z,102107.91
2023-04-08T19:16:17.664Z,102111.22
2023-04-08T19:18:46.072Z,102114.81
2023-04-08T19:21:14.586Z,102115.38
2023-04-08T19:23:42.951Z,102112.63
2023-04-08T19:26:11.385Z,102109.06
2023-04-08T19:28:39.715Z,102108.47
2023-04-08T19:31:20.620Z,102117.56
2023-04-08T19:33:51.120Z,102108.19
2023-04-08T19:36:21.455Z,102115.97
2023-04-08T19:38:51.591Z,102109.88
2023-04-08T19:41:23.145Z,102113.16
2023-04-08T19:43:53.433Z,102113.09
2023-04-08T19:46:23.749Z,102119.94
2023-04-08T19:48:56.325Z,102119.28
2023-04-08T19:51:27.583Z,102125.00
2023-04-08T19:53:58.056Z,102123.03
2023-04-08T19:56:28.237Z,102124.38
2023-04-08T19:58:58.590Z,102127.97
2023-04-08T20:01:29.567Z,102125.44
2023-04-08T20:03:59.818Z,102124.88
2023-04-08T20:06:30.315Z,102124.88
2023-04-08T20:09:05.700Z,102124.81
2023-04-08T20:11:36.284Z,102120.34
2023-04-08T20:14:06.438Z,102127.19
2023-04-08T20:16:36.611Z,102121.94
2023-04-08T20:19:06.772Z,102123.03
2023-04-08T20:21:36.989Z,102124.09
2023-04-08T20:24:07.456Z,102119.44
2023-04-08T20:26:37.903Z,102123.63
2023-04-08T20:29:08.389Z,102120.00
2023-04-08T20:31:38.623Z,102124.69
2023-04-08T20:34:09.703Z,102126.38
2023-04-08T20:36:40.732Z,102113.91
2023-04-08T20:39:30.202Z,102121.63
2023-04-08T20:41:59.604Z,102118.53
2023-04-08T20:44:29.177Z,102124.28
2023-04-08T20:46:59.585Z,102124.28
2023-04-08T20:49:29.792Z,102125.13
2023-04-08T20:51:59.714Z,102129.31
2023-04-08T20:54:31.357Z,102132.63
2023-04-08T20:57:01.275Z,102131.53
2023-04-08T20:59:30.784Z,102137.63
2023-04-08T21:01:59.333Z,102135.44
2023-04-08T21:04:28.145Z,102132.44
2023-04-08T21:06:56.093Z,102136.84
2023-04-08T21:09:24.493Z,102139.84
2023-04-08T21:11:52.983Z,102130.78
2023-04-08T21:14:21.494Z,102131.88
2023-04-08T21:16:49.831Z,102133.19
2023-04-08T21:19:18.245Z,102127.63
2023-04-08T21:21:47.124Z,102129.75
2023-04-08T21:24:15.169Z,102136.25
2023-04-08T21:26:43.566Z,102135.88
2023-04-08T21:29:12.440Z,102139.34
2023-04-08T21:31:41.295Z,102137.34
2023-04-08T21:34:08.726Z,102130.97
2023-04-08T21:36:38.080Z,102133.88
2023-04-08T21:39:08.356Z,102133.81
2023-04-08T21:41:38.593Z,102136.13
2023-04-08T21:44:09.449Z,102131.88
2023-04-08T21:46:39.725Z,102136.97
2023-04-08T21:49:11.565Z,102143.16
2023-04-08T21:51:41.128Z,102131.97
2023-04-08T21:54:11.303Z,102138.34
2023-04-08T21:56:42.792Z,102135.69
2023-04-08T21:59:13.101Z,102131.09
2023-04-08T22:01:43.309Z,102136.63
2023-04-08T22:04:13.594Z,102132.00
2023-04-08T22:06:43.624Z,102139.81
2023-04-08T22:09:14.029Z,102138.50
2023-04-08T22:11:44.078Z,102138.03
2023-04-08T22:14:15.685Z,102132.09
2023-04-08T22:16:46.155Z,102128.91
2023-04-08T22:19:15.696Z,102130.09
2023-04-08T22:21:46.123Z,102118.44
2023-04-08T22:24:16.382Z,102123.19
2023-04-08T22:26:46.671Z,102130.13
2023-04-08T22:29:17.563Z,102129.44
2023-04-08T22:31:47.782Z,102125.13
2023-04-08T22:34:18.034Z,102124.41
2023-04-08T22:36:48.278Z,102117.97
2023-04-08T22:39:18.456Z,102116.78
2023-04-08T22:41:48.715Z,102113.94
2023-04-08T22:44:18.953Z,102115.69
2023-04-08T22:46:49.534Z,102115.44
2023-04-08T22:49:19.730Z,102121.03
2023-04-08T22:51:49.955Z,102112.94
2023-04-08T22:54:20.199Z,102111.97
2023-04-08T22:56:50.568Z,102107.41
2023-04-08T22:59:20.917Z,102101.81
2023-04-08T23:01:51.150Z,102103.81
2023-04-08T23:04:21.364Z,102104.50
2023-04-08T23:06:51.518Z,102113.44
2023-04-08T23:09:23.813Z,102113.31
2023-04-08T23:11:54.266Z,102113.38
2023-04-08T23:14:24.633Z,102113.03
2023-04-08T23:16:54.832Z,102111.00
2023-04-08T23:19:25.103Z,102108.09
2023-04-08T23:21:55.383Z,102105.47
2023-04-08T23:24:25.677Z,102108.66
2023-04-08T23:26:56.510Z,102106.59
2023-04-08T23:29:26.843Z,102106.25
2023-04-08T23:31:57.133Z,102101.22
2023-04-08T23:34:27.347Z,102102.75
2023-04-08T23:36:57.496Z,102104.88
2023-04-08T23:39:27.673Z,102103.44
2023-04-08T23:41:57.982Z,102110.44
2023-04-08T23:44:28.513Z,102105.66
2023-04-08T23:46:58.723Z,102104.44
2023-04-08T23:49:28.943Z,102108.69
2023-04-08T23:51:59.138Z,102116.50
2023-04-08T23:54:33.931Z,102107.13
2023-04-08T23:57:04.277Z,102104.84
2023-04-08T23:59:34.511Z,102102.78
